createdAt,value
2019-03-28T00:02:21.655Z,9.36
2019-03-28T00:04:49.066Z,9.27
2019-03-28T00:07:16.499Z,9.21
2019-03-28T00:09:44.075Z,9.16
2019-03-28T00:12:11.491Z,9.20
2019-03-28T00:14:38.882Z,9.22
2019-03-28T00:17:06.322Z,9.24
2019-03-28T00:19:33.908Z,9.25
2019-03-28T00:22:01.307Z,9.24
2019-03-28T00:27:21.248Z,9.53
2019-03-28T00:29:48.390Z,9.48
2019-03-28T00:32:15.954Z,9.38
2019-03-28T00:34:43.432Z,9.29
2019-03-28T00:37:10.825Z,9.24
2019-03-28T00:39:38.269Z,9.20
2019-03-28T00:42:05.675Z,9.18
2019-03-28T00:44:33.363Z,9.19
2019-03-28T00:47:00.859Z,9.24
2019-03-28T00:49:28.247Z,9.15
2019-03-28T00:51:55.662Z,9.12
2019-03-28T00:54:23.065Z,9.14
2019-03-28T00:56:51.668Z,9.11
2019-03-28T00:59:19.108Z,9.08
2019-03-28T01:01:46.499Z,9.09
2019-03-28T01:04:13.903Z,9.07
2019-03-28T01:06:41.296Z,9.07
2019-03-28T01:09:08.713Z,9.13
2019-03-28T01:11:37.090Z,9.14
2019-03-28T01:14:03.843Z,9.20
2019-03-28T01:16:31.473Z,9.21
2019-03-28T01:18:58.870Z,9.17
2019-03-28T01:21:26.277Z,9.05
2019-03-28T01:23:53.679Z,9.00
2019-03-28T01:26:21.101Z,8.95
2019-03-28T01:28:48.499Z,8.92
2019-03-28T01:31:15.898Z,8.89
2019-03-28T01:33:43.355Z,8.90
2019-03-28T01:36:10.741Z,8.91
2019-03-28T01:38:38.156Z,8.88
2019-03-28T01:41:05.595Z,8.89
2019-03-28T01:43:33.024Z,8.85
2019-03-28T01:46:00.442Z,8.90
2019-03-28T01:48:27.841Z,8.89
2019-03-28T01:50:55.241Z,8.84
2019-03-28T01:53:22.864Z,8.76
2019-03-28T01:55:50.318Z,8.78
2019-03-28T01:58:17.722Z,8.81
2019-03-28T02:00:45.134Z,8.79
2019-03-28T02:03:12.533Z,8.79
2019-03-28T02:05:39.926Z,8.83
2019-03-28T02:08:07.333Z,8.97
2019-03-28T02:10:34.790Z,9.09
2019-03-28T02:13:02.584Z,9.11
2019-03-28T02:15:30.251Z,9.04
2019-03-28T02:17:57.511Z,8.96
2019-03-28T02:20:25.014Z,8.98
2019-03-28T02:22:52.420Z,8.93
2019-03-28T02:25:19.854Z,8.96
2019-03-28T02:27:47.363Z,8.91
2019-03-28T02:30:14.786Z,8.89
2019-03-28T02:32:42.266Z,8.89
2019-03-28T02:35:09.669Z,8.89
2019-03-28T02:37:37.113Z,8.84
2019-03-28T02:40:05.263Z,8.87
2019-03-28T02:42:32.683Z,8.89
2019-03-28T02:45:00.275Z,8.82
2019-03-28T02:47:27.497Z,8.75
2019-03-28T02:49:59.851Z,8.70
2019-03-28T02:52:27.247Z,8.61
2019-03-28T02:54:54.659Z,8.64
2019-03-28T02:57:22.059Z,8.68
2019-03-28T02:59:49.880Z,8.70
2019-03-28T03:02:17.299Z,8.71
2019-03-28T03:04:44.709Z,8.70
2019-03-28T03:07:12.127Z,8.62
2019-03-28T03:09:39.571Z,8.59
2019-03-28T03:12:06.982Z,8.52
2019-03-28T03:14:34.800Z,8.40
2019-03-28T03:17:02.188Z,8.29
2019-03-28T03:19:29.608Z,8.29
2019-03-28T03:21:56.996Z,8.26
2019-03-28T03:24:24.397Z,8.25
2019-03-28T03:26:51.807Z,8.26
2019-03-28T03:29:19.780Z,8.21
2019-03-28T03:31:47.183Z,8.13
2019-03-28T03:34:14.764Z,8.08
2019-03-28T03:36:42.175Z,8.08
2019-03-28T03:39:09.608Z,8.09
2019-03-28T03:41:37.046Z,8.07
2019-03-28T03:44:04.508Z,8.10
2019-03-28T03:46:31.971Z,8.11
2019-03-28T03:48:59.408Z,8.12
2019-03-28T03:51:26.837Z,8.11
2019-03-28T03:53:54.424Z,8.09
2019-03-28T03:56:21.854Z,8.02
2019-03-28T03:58:49.261Z,7.96
2019-03-28T04:01:16.705Z,8.14
2019-03-28T04:03:44.197Z,8.29
2019-03-28T04:06:11.591Z,8.41
2019-03-28T04:08:39.339Z,8.33
2019-03-28T04:11:06.949Z,8.28
2019-03-28T04:13:34.428Z,7.98
2019-03-28T04:16:01.838Z,7.73
2019-03-28T04:18:29.598Z,7.66
2019-03-28T04:20:56.983Z,7.69
2019-03-28T04:23:24.392Z,7.70
2019-03-28T04:25:51.873Z,7.56
2019-03-28T04:28:30.822Z,7.44
2019-03-28T04:30:46.713Z,7.44
2019-03-28T04:33:14.148Z,7.59
2019-03-28T04:35:41.537Z,7.71
2019-03-28T04:38:08.933Z,7.71
2019-03-28T04:40:36.503Z,7.64
2019-03-28T04:43:03.989Z,7.57
2019-03-28T04:45:31.488Z,7.60
2019-03-28T04:47:58.903Z,7.67
2019-03-28T04:50:26.615Z,7.72
2019-03-28T04:52:54.011Z,7.76
2019-03-28T04:55:21.554Z,7.86
2019-03-28T04:57:48.836Z,7.79
2019-03-28T05:00:16.231Z,7.71
2019-03-28T05:02:46.031Z,7.70
2019-03-28T05:05:11.107Z,7.71
2019-03-28T05:07:38.539Z,7.76
2019-03-28T05:10:05.973Z,7.80
2019-03-28T05:12:33.448Z,7.80
2019-03-28T05:15:00.933Z,7.83
2019-03-28T05:17:28.323Z,7.82
2019-03-28T05:19:56.104Z,7.87
2019-03-28T05:22:23.768Z,7.78
2019-03-28T05:24:51.172Z,7.74
2019-03-28T05:27:19.135Z,7.72
2019-03-28T05:29:46.543Z,7.78
2019-03-28T05:32:13.967Z,7.72
2019-03-28T05:34:41.364Z,7.68
2019-03-28T05:37:08.791Z,7.68
2019-03-28T05:39:36.644Z,7.75
2019-03-28T05:42:04.035Z,7.77
2019-03-28T05:44:31.459Z,7.74
2019-03-28T05:46:58.868Z,7.82
2019-03-28T05:49:26.971Z,7.87
2019-03-28T05:51:54.387Z,8.04
2019-03-28T05:54:21.782Z,8.20
2019-03-28T05:56:49.208Z,8.40
2019-03-28T05:59:16.671Z,8.55
2019-03-28T06:01:44.254Z,8.75
2019-03-28T06:04:11.697Z,8.78
2019-03-28T06:06:39.192Z,8.78
2019-03-28T06:09:06.625Z,8.75
2019-03-28T06:11:34.040Z,8.89
2019-03-28T06:14:01.490Z,9.06
2019-03-28T06:16:28.899Z,9.15
2019-03-28T06:18:56.321Z,9.08
2019-03-28T06:21:23.719Z,9.13
2019-03-28T06:23:51.134Z,9.20
2019-03-28T06:26:18.545Z,9.26
2019-03-28T06:28:47.054Z,9.32
2019-03-28T06:31:14.455Z,9.27
2019-03-28T06:33:42.289Z,9.26
2019-03-28T06:36:09.691Z,9.36
2019-03-28T06:38:37.091Z,9.55
2019-03-28T06:41:04.855Z,9.59
2019-03-28T06:43:32.240Z,9.64
2019-03-28T06:45:59.647Z,9.68
2019-03-28T06:48:27.054Z,9.75
2019-03-28T06:50:54.548Z,9.78
2019-03-28T06:53:22.033Z,9.73
2019-03-28T06:55:49.437Z,9.67
2019-03-28T06:58:16.835Z,9.69
2019-03-28T07:00:44.244Z,9.64
2019-03-28T07:03:12.907Z,9.53
2019-03-28T07:05:39.389Z,9.62
2019-03-28T07:08:07.574Z,9.62
2019-03-28T07:10:35.010Z,9.62
2019-03-28T07:13:02.408Z,9.68
2019-03-28T07:15:29.904Z,9.81
2019-03-28T07:17:57.302Z,9.79
2019-03-28T07:20:24.747Z,9.87
2019-03-28T07:22:52.146Z,9.93
2019-03-28T07:25:19.547Z,9.98
2019-03-28T07:27:47.014Z,10.02
2019-03-28T07:30:14.473Z,10.11
2019-03-28T07:32:43.547Z,10.22
2019-03-28T07:35:09.634Z,10.28
2019-03-28T07:37:37.047Z,10.32
2019-03-28T07:40:05.415Z,10.28
2019-03-28T07:42:32.717Z,10.35
2019-03-28T07:45:00.302Z,10.43
2019-03-28T07:47:27.583Z,10.55
2019-03-28T07:49:55.641Z,10.73
2019-03-28T07:52:23.045Z,10.83
2019-03-28T07:54:50.435Z,10.95
2019-03-28T07:57:17.868Z,10.97
2019-03-28T07:59:45.397Z,11.02
2019-03-28T08:02:12.936Z,11.10
2019-03-28T08:04:40.355Z,11.23
2019-03-28T08:07:07.859Z,11.24
2019-03-28T08:09:36.969Z,10.97
2019-03-28T08:12:03.992Z,10.80
2019-03-28T08:14:30.831Z,11.02
2019-03-28T08:16:58.233Z,11.17
2019-03-28T08:19:25.642Z,11.36
2019-03-28T08:21:53.044Z,11.49
2019-03-28T08:24:20.479Z,11.39
2019-03-28T08:26:48.014Z,11.17
2019-03-28T08:29:16.529Z,11.30
2019-03-28T08:31:45.171Z,11.62
2019-03-28T08:34:12.631Z,11.96
2019-03-28T08:36:40.017Z,12.11
2019-03-28T08:39:07.411Z,12.22
2019-03-28T08:41:34.999Z,12.13
2019-03-28T08:44:02.367Z,12.19
2019-03-28T08:46:29.763Z,12.23
2019-03-28T08:48:57.247Z,12.29
2019-03-28T08:51:27.256Z,12.33
2019-03-28T08:53:52.110Z,12.43
2019-03-28T08:56:19.533Z,12.49
2019-03-28T08:58:47.054Z,12.53
2019-03-28T09:01:14.480Z,12.42
2019-03-28T09:03:41.931Z,12.08
2019-03-28T09:06:10.622Z,11.71
2019-03-28T09:08:38.042Z,11.76
2019-03-28T09:11:05.505Z,11.75
2019-03-28T09:13:32.929Z,12.14
2019-03-28T09:16:00.442Z,12.52
2019-03-28T09:18:27.984Z,12.58
2019-03-28T09:20:55.489Z,12.24
2019-03-28T09:23:22.922Z,12.08
2019-03-28T09:25:50.343Z,12.00
2019-03-28T09:28:17.776Z,12.41
2019-03-28T09:30:49.493Z,12.67
2019-03-28T09:33:12.961Z,12.72
2019-03-28T09:35:40.425Z,12.42
2019-03-28T09:38:07.841Z,12.50
2019-03-28T09:40:35.262Z,12.67
2019-03-28T09:43:02.722Z,12.64
2019-03-28T09:45:30.265Z,12.84
2019-03-28T09:47:57.594Z,13.16
2019-03-28T09:50:25.041Z,13.31
2019-03-28T09:52:52.541Z,13.47
2019-03-28T09:55:20.005Z,13.53
2019-03-28T09:57:47.385Z,13.84
2019-03-28T10:00:14.855Z,13.82
2019-03-28T10:02:44.102Z,13.59
2019-03-28T10:05:10.063Z,13.66
2019-03-28T10:07:38.704Z,13.96
2019-03-28T10:10:05.426Z,14.13
2019-03-28T10:12:34.214Z,14.09
2019-03-28T10:15:00.551Z,13.52
2019-03-28T10:17:29.207Z,13.47
2019-03-28T10:19:56.712Z,13.48
2019-03-28T10:22:24.143Z,13.89
2019-03-28T10:24:51.701Z,13.94
2019-03-28T10:27:20.222Z,13.77
2019-03-28T10:29:47.783Z,13.71
2019-03-28T10:32:15.335Z,13.72
2019-03-28T10:34:42.761Z,14.32
2019-03-28T10:37:10.274Z,14.83
2019-03-28T10:39:37.942Z,15.13
2019-03-28T10:42:05.407Z,15.60
2019-03-28T10:44:32.991Z,15.44
2019-03-28T10:47:00.494Z,14.83
2019-03-28T10:49:27.903Z,14.46
2019-03-28T10:51:55.322Z,14.23
2019-03-28T10:54:25.587Z,14.69
2019-03-28T10:56:52.480Z,14.79
2019-03-28T10:59:23.675Z,14.65
2019-03-28T11:01:49.977Z,14.64
2019-03-28T11:04:12.852Z,15.16
2019-03-28T11:06:40.280Z,16.02
2019-03-28T11:09:08.459Z,16.61
2019-03-28T11:11:35.400Z,16.18
2019-03-28T11:14:02.793Z,16.26
2019-03-28T11:16:30.230Z,16.78
2019-03-28T11:18:57.670Z,17.47
2019-03-28T11:21:25.095Z,17.86
2019-03-28T11:23:52.678Z,17.79
2019-03-28T11:26:20.125Z,17.47
2019-03-28T11:28:47.560Z,16.97
2019-03-28T11:31:14.997Z,17.02
2019-03-28T11:33:42.431Z,16.82
2019-03-28T11:36:09.857Z,16.36
2019-03-28T11:38:37.330Z,16.50
2019-03-28T11:41:04.759Z,16.50
2019-03-28T11:43:32.268Z,16.59
2019-03-28T11:45:59.699Z,16.71
2019-03-28T11:48:27.142Z,16.82
2019-03-28T11:50:54.605Z,16.88
2019-03-28T11:53:22.096Z,17.17
2019-03-28T11:55:49.552Z,17.28
2019-03-28T11:58:16.990Z,17.03
2019-03-28T12:00:44.395Z,17.05
2019-03-28T12:03:11.848Z,17.19
2019-03-28T12:05:39.263Z,17.31
2019-03-28T12:08:06.655Z,17.34
2019-03-28T12:10:34.150Z,17.25
2019-03-28T12:13:01.705Z,17.37
2019-03-28T12:15:29.155Z,17.33
2019-03-28T12:17:56.611Z,17.80
2019-03-28T12:20:24.047Z,17.96
2019-03-28T12:22:51.481Z,17.96
2019-03-28T12:25:18.908Z,18.15
2019-03-28T12:27:46.384Z,18.05
2019-03-28T12:30:15.941Z,18.20
2019-03-28T12:32:41.279Z,18.22
2019-03-28T12:35:08.702Z,18.52
2019-03-28T12:37:36.720Z,18.63
2019-03-28T12:40:04.461Z,18.56
2019-03-28T12:42:31.935Z,18.71
2019-03-28T12:44:59.419Z,18.97
2019-03-28T12:47:26.957Z,18.83
2019-03-28T12:49:55.026Z,18.38
2019-03-28T12:52:22.492Z,18.34
2019-03-28T12:54:49.913Z,18.40
2019-03-28T12:57:17.371Z,18.54
2019-03-28T12:59:44.851Z,18.56
2019-03-28T13:02:12.267Z,18.57
2019-03-28T13:04:39.670Z,18.65
2019-03-28T13:07:07.106Z,18.86
2019-03-28T13:09:35.758Z,18.88
2019-03-28T13:12:02.019Z,18.73
2019-03-28T13:14:31.458Z,18.97
2019-03-28T13:16:57.679Z,19.75
2019-03-28T13:19:26.750Z,19.29
2019-03-28T13:21:54.159Z,19.49
2019-03-28T13:24:21.575Z,19.52
2019-03-28T13:26:48.998Z,19.33
2019-03-28T13:29:16.407Z,19.56
2019-03-28T13:31:44.251Z,20.05
2019-03-28T13:34:11.652Z,19.60
2019-03-28T13:36:39.085Z,19.33
2019-03-28T13:39:06.538Z,19.66
2019-03-28T13:41:33.944Z,19.84
2019-03-28T13:44:01.474Z,19.84
2019-03-28T13:46:28.876Z,19.69
2019-03-28T13:48:56.297Z,19.78
2019-03-28T13:51:24.141Z,20.31
2019-03-28T13:53:52.236Z,20.04
2019-03-28T13:56:19.034Z,20.01
2019-03-28T13:58:46.445Z,19.84
2019-03-28T14:01:13.867Z,19.55
2019-03-28T14:03:41.272Z,19.49
2019-03-28T14:06:08.667Z,19.47
2019-03-28T14:08:36.201Z,19.49
2019-03-28T14:11:03.649Z,19.74
2019-03-28T14:13:31.105Z,19.80
2019-03-28T14:15:58.547Z,20.07
2019-03-28T14:18:26.025Z,20.43
2019-03-28T14:20:53.483Z,20.48
2019-03-28T14:23:20.941Z,20.39
2019-03-28T14:25:48.405Z,20.25
2019-03-28T14:28:15.814Z,19.79
2019-03-28T14:30:43.264Z,19.56
2019-03-28T14:33:12.979Z,19.66
2019-03-28T14:35:38.113Z,19.76
2019-03-28T14:38:05.555Z,20.18
2019-03-28T14:40:33.883Z,20.22
2019-03-28T14:43:01.362Z,20.35
2019-03-28T14:45:28.844Z,20.30
2019-03-28T14:47:56.850Z,20.21
2019-03-28T14:50:34.943Z,20.22
2019-03-28T14:53:02.468Z,20.20
2019-03-28T14:55:30.129Z,19.93
2019-03-28T14:57:57.491Z,19.58
2019-03-28T15:00:42.796Z,19.99
2019-03-28T15:03:24.532Z,20.21
2019-03-28T15:05:38.371Z,20.48
2019-03-28T15:08:05.795Z,20.47
2019-03-28T15:10:33.271Z,20.73
2019-03-28T15:13:00.699Z,21.15
2019-03-28T15:15:28.416Z,21.66
2019-03-28T15:17:55.825Z,21.58
2019-03-28T15:20:23.303Z,21.14
2019-03-28T15:22:50.704Z,20.69
2019-03-28T15:25:18.275Z,20.59
2019-03-28T15:27:45.774Z,20.32
2019-03-28T15:30:13.279Z,20.34
2019-03-28T15:32:40.729Z,20.72
2019-03-28T15:35:08.956Z,20.44
2019-03-28T15:37:36.373Z,20.31
2019-03-28T15:40:04.737Z,20.04
2019-03-28T15:42:32.217Z,20.38
2019-03-28T15:44:59.633Z,20.87
2019-03-28T15:47:28.342Z,20.66
2019-03-28T15:49:55.799Z,20.57
2019-03-28T15:52:27.289Z,20.69
2019-03-28T15:54:51.603Z,21.00
2019-03-28T15:57:19.075Z,21.07
2019-03-28T15:59:46.488Z,20.85
2019-03-28T16:02:13.943Z,20.66
2019-03-28T16:04:41.400Z,19.98
2019-03-28T16:07:08.836Z,19.77
2019-03-28T16:09:36.276Z,20.00
2019-03-28T16:12:03.815Z,20.04
2019-03-28T16:14:31.241Z,19.73
2019-03-28T16:16:58.674Z,19.60
2019-03-28T16:19:26.118Z,19.64
2019-03-28T16:21:53.507Z,19.51
2019-03-28T16:24:21.119Z,19.23
2019-03-28T16:26:48.535Z,19.34
2019-03-28T16:29:15.959Z,19.25
2019-03-28T16:31:43.470Z,19.09
2019-03-28T16:34:10.979Z,19.00
2019-03-28T16:36:38.471Z,18.86
2019-03-28T16:39:05.952Z,18.83
2019-03-28T16:41:33.446Z,18.62
2019-03-28T16:44:00.864Z,18.14
2019-03-28T16:46:28.280Z,17.80
2019-03-28T16:48:55.713Z,17.74
2019-03-28T16:51:23.247Z,17.91
2019-03-28T16:53:50.716Z,17.87
2019-03-28T16:56:18.206Z,17.80
2019-03-28T16:58:45.900Z,17.71
2019-03-28T17:01:13.159Z,17.70
2019-03-28T17:03:40.585Z,17.62
2019-03-28T17:06:08.042Z,17.45
2019-03-28T17:08:35.414Z,17.18
2019-03-28T17:11:02.834Z,16.97
2019-03-28T17:13:31.195Z,16.74
2019-03-28T17:15:58.652Z,16.56
2019-03-28T17:18:26.252Z,16.25
2019-03-28T17:20:53.672Z,16.06
2019-03-28T17:23:21.073Z,15.88
2019-03-28T17:25:49.201Z,15.68
2019-03-28T17:28:16.819Z,15.56
2019-03-28T17:30:44.919Z,15.41
2019-03-28T17:33:12.319Z,15.29
2019-03-28T17:35:40.586Z,15.15
2019-03-28T17:38:08.001Z,15.03
2019-03-28T17:40:36.749Z,14.95
2019-03-28T17:43:02.047Z,14.83
2019-03-28T17:45:29.510Z,14.75
2019-03-28T17:47:56.906Z,14.60
2019-03-28T17:50:24.366Z,14.39
2019-03-28T17:52:51.772Z,14.25
2019-03-28T17:55:19.802Z,14.15
2019-03-28T17:57:46.672Z,14.06
2019-03-28T18:00:14.125Z,14.03
2019-03-28T18:02:41.051Z,13.95
2019-03-28T18:05:09.447Z,13.88
2019-03-28T18:07:35.721Z,13.85
2019-03-28T18:10:03.134Z,13.86
2019-03-28T18:12:30.210Z,13.88
2019-03-28T18:14:57.315Z,13.79
2019-03-28T18:17:24.251Z,13.81
2019-03-28T18:19:51.682Z,13.81
2019-03-28T18:22:19.083Z,13.81
2019-03-28T18:24:46.508Z,13.80
2019-03-28T18:27:13.503Z,13.69
2019-03-28T18:29:40.470Z,13.65
2019-03-28T18:32:07.884Z,13.59
2019-03-28T18:34:35.274Z,13.45
2019-03-28T18:37:02.756Z,13.42
2019-03-28T18:39:30.177Z,13.39
2019-03-28T18:41:57.620Z,13.41
2019-03-28T18:44:25.027Z,13.31
2019-03-28T18:46:52.465Z,13.23
2019-03-28T18:49:20.031Z,13.19
2019-03-28T18:51:47.464Z,13.25
2019-03-28T18:54:14.895Z,13.30
2019-03-28T18:56:42.315Z,13.30
2019-03-28T18:59:09.710Z,13.36
2019-03-28T19:01:37.128Z,13.30
2019-03-28T19:04:04.584Z,13.21
2019-03-28T19:06:31.990Z,13.18
2019-03-28T19:08:59.561Z,13.09
2019-03-28T19:11:26.955Z,13.07
2019-03-28T19:13:54.381Z,13.05
2019-03-28T19:16:21.996Z,13.01
2019-03-28T19:18:49.266Z,12.99
2019-03-28T19:21:16.681Z,12.97
2019-03-28T19:23:44.201Z,12.93
2019-03-28T19:26:11.601Z,12.84
2019-03-28T19:28:39.003Z,12.80
2019-03-28T19:31:06.471Z,12.78
2019-03-28T19:33:33.878Z,12.75
2019-03-28T19:36:01.567Z,12.68
2019-03-28T19:38:28.723Z,12.66
2019-03-28T19:40:56.157Z,12.66
2019-03-28T19:43:23.675Z,12.66
2019-03-28T19:45:51.240Z,12.61
2019-03-28T19:48:18.651Z,12.59
2019-03-28T19:50:46.084Z,12.61
2019-03-28T19:53:13.488Z,12.63
2019-03-28T19:55:40.925Z,12.59
2019-03-28T19:58:08.654Z,12.54
2019-03-28T20:00:36.137Z,12.53
2019-03-28T20:03:03.576Z,12.50
2019-03-28T20:05:31.054Z,12.44
2019-03-28T20:07:58.482Z,12.45
2019-03-28T20:10:25.889Z,12.38
2019-03-28T20:12:53.353Z,12.33
2019-03-28T20:15:20.756Z,12.26
2019-03-28T20:17:48.201Z,12.29
2019-03-28T20:20:16.459Z,12.31
2019-03-28T20:22:45.093Z,12.38
2019-03-28T20:25:11.319Z,12.42
2019-03-28T20:27:38.728Z,12.43
2019-03-28T20:30:06.137Z,12.50
2019-03-28T20:32:33.541Z,12.49
2019-03-28T20:35:00.973Z,12.52
2019-03-28T20:37:28.374Z,12.54
2019-03-28T20:39:55.779Z,12.62
2019-03-28T20:42:23.195Z,12.64
2019-03-28T20:44:50.611Z,12.66
2019-03-28T20:47:18.001Z,12.56
2019-03-28T20:49:46.831Z,12.46
2019-03-28T20:52:13.588Z,12.51
2019-03-28T20:54:40.988Z,12.54
2019-03-28T20:57:08.392Z,12.54
2019-03-28T20:59:35.809Z,12.52
2019-03-28T21:02:03.307Z,12.47
2019-03-28T21:04:31.879Z,12.37
2019-03-28T21:06:58.167Z,12.32
2019-03-28T21:09:25.567Z,12.23
2019-03-28T21:11:52.965Z,12.19
2019-03-28T21:14:20.375Z,12.18
2019-03-28T21:16:47.785Z,12.10
2019-03-28T21:19:15.235Z,12.00
2019-03-28T21:21:44.523Z,12.00
2019-03-28T21:24:10.186Z,11.98
2019-03-28T21:26:37.609Z,11.90
2019-03-28T21:29:04.998Z,11.83
2019-03-28T21:31:32.574Z,11.80
2019-03-28T21:34:00.014Z,11.68
2019-03-28T21:36:29.994Z,11.65
2019-03-28T21:38:54.863Z,11.46
2019-03-28T21:41:23.173Z,11.38
2019-03-28T21:43:50.793Z,11.40
2019-03-28T21:46:18.225Z,11.28
2019-03-28T21:48:45.613Z,11.25
2019-03-28T21:51:13.023Z,11.25
2019-03-28T21:53:40.428Z,11.28
2019-03-28T21:56:07.890Z,11.30
2019-03-28T21:58:35.613Z,11.31
2019-03-28T22:01:03.025Z,11.30
2019-03-28T22:03:30.492Z,11.23
2019-03-28T22:05:57.955Z,11.18
2019-03-28T22:08:25.403Z,11.14
2019-03-28T22:10:52.839Z,11.11
2019-03-28T22:13:20.278Z,11.11
2019-03-28T22:15:47.715Z,11.00
2019-03-28T22:18:15.133Z,10.96
2019-03-28T22:20:43.683Z,10.84
2019-03-28T22:23:13.323Z,10.69
2019-03-28T22:25:37.398Z,10.67
2019-03-28T22:28:05.351Z,10.67
2019-03-28T22:30:32.765Z,10.61
2019-03-28T22:33:00.173Z,10.55
2019-03-28T22:35:27.592Z,10.52
2019-03-28T22:37:55.054Z,10.50
2019-03-28T22:40:22.454Z,10.52
2019-03-28T22:42:49.868Z,10.51
2019-03-28T22:45:17.991Z,10.64
2019-03-28T22:47:44.738Z,10.65
2019-03-28T22:50:12.126Z,10.59
2019-03-28T22:52:39.572Z,10.55
2019-03-28T22:55:07.040Z,10.47
2019-03-28T22:57:34.462Z,10.36
2019-03-28T23:00:04.201Z,10.33
2019-03-28T23:02:29.314Z,10.29
2019-03-28T23:04:56.799Z,10.27
2019-03-28T23:07:24.370Z,10.22
2019-03-28T23:09:51.787Z,10.18
2019-03-28T23:12:19.226Z,10.22
2019-03-28T23:14:46.639Z,10.10
2019-03-28T23:17:14.043Z,9.94
2019-03-28T23:19:41.453Z,9.90
2019-03-28T23:22:08.858Z,9.92
2019-03-28T23:24:38.911Z,9.99
2019-03-28T23:27:03.675Z,10.03
2019-03-28T23:29:32.102Z,9.95
2019-03-28T23:31:59.536Z,9.77
2019-03-28T23:34:26.959Z,9.59
2019-03-28T23:36:54.363Z,9.57
2019-03-28T23:39:21.759Z,9.57
2019-03-28T23:41:49.162Z,9.68
2019-03-28T23:44:16.562Z,9.63
2019-03-28T23:46:44.290Z,9.45
2019-03-28T23:49:11.694Z,9.38
2019-03-28T23:51:39.108Z,9.37
2019-03-28T23:54:06.506Z,9.24
2019-03-28T23:56:33.913Z,9.24
2019-03-28T23:59:01.442Z,9.32
